Terminal Aerodrome Forecast
Issued by NWS

Home | Current Version | Previous Version | Text Only | Print | Product List | Glossary On
Versions: 1 2 3 4 5 6 7 8 9 10 11 12 13 14 15 16 17 18 19 20 21 22
000
FTUS46 KSEW 222300 RRA
TAFCLM
TAF
KCLM 222350Z 2300/2324 VRB03KT P6SM -RA SCT035 BKN050 OVC090
     FM230200 VRB03KT 6SM -RA BR SCT015 BKN035 OVC050
      TEMPO 2302/2306 4SM -RA BR BKN015 OVC030
     FM230600 25005KT P6SM VCSH SCT020 BKN035 OVC050
      TEMPO 2306/2310 -SHRA BKN020 OVC035
     FM231000 25005KT P6SM VCSH SCT035 BKN050 BKN090
     FM231800 29006KT P6SM VCSH SCT050 BKN090 PROB30 2320/2324 -SHRA
      OVC050
      AMD NOT SKED=

USA.gov is the U.S. government's official web portal to all federal, state and local government web resources and services.